ダブリン の空港の天気 - METARとTAF

ダブリン空港 ( EIDW / DUB ) - アイルランド ダブリン
飛行場実況気象(Metar)
観測時間10/21 16:30 GMT (10/21 15:30 UTC)
風向・風速西北西 7m/s
視程10km以上
天気現象
少しの雲 雲底高度 670m
全天の8割程度の雲 雲底高度 1070m
気温11℃
湿度76%
気圧995hPa
METAREIDW 211530Z 29013KT 9999 FEW022 BKN035 11/07 Q0995 NOSIG
過去の天気等 Google飛行場航空写真 Wunderground天気予報

過去48時間のMETAR

飛行場予報(TAF)
発表時間: 10/21 12:00 GMT (10/21 11:00 UTC)
予報対象時間: 21日13時 GMT ~ 22日13時 GMT
風向・風速西 7m/s
視程10km以上
全天の4割程度の雲 雲底高度 210m
全天の8割程度の雲 雲底高度 460m
21日13時 GMT ~ 21日18時 GMT に一時的に
全天の8割程度の雲 雲底高度 300m
21日13時 GMT ~ 21日16時 GMT に 確率 40% で一時的に
視程4000m
天気現象弱い雨霧雨
全天の8割程度の雲 雲底高度 210m
21日15時 GMT ~ 21日17時 GMT に徐々に
風向・風速西北西 7m/s
21日17時 GMT ~ 21日18時 GMT に一時的に
風向・風速西北西 8m/s 瞬間風速 13m/s
21日18時 GMT ~ 21日22時 GMT に 確率 30% で一時的に
全天の8割程度の雲 雲底高度 370m
21日19時 GMT ~ 21日21時 GMT に徐々に
風向・風速西 6m/s
TAF EIDW 211100Z 2112/2212 27013KT 9999 SCT007 BKN015
TEMPO 2112/2117 BKN010
PROB40 TEMPO 2112/2115 4000 -RADZ BKN007
BECMG 2114/2116 30014KT
TEMPO 2116/2117 30015G25KT
PROB30 TEMPO 2117/2121 BKN012
BECMG 2118/2120 27012KT